Aarschot, Belgium
Current Conditions -  °F | °C
As of 5:33 PM on Wednesday 22 Oct 2014 (Local Time) from EBDT Reporting Station
Scattered Clouds Scattered Clouds  
Wind Chill: 50°   Ceiling: Unl
Heat Index: 50°   Visibility: 4mi
Dew Point: 46°   Wind: 8mph
Humidity: 87%   Direction: 290°WNW
Pressure: 30.18"   Gusts: NA
Location:  50.99°N, 4.84°E
Report Text: EBDT 221533Z AUTO 29007KT 7000 SCT065/// 10/08 Q1022 WHT
Loading
Personal Weather Stations






























Interactive Weather Map
Tropical Storm Tracking
New forecast layout! Learn more

10-Day Weather Forecast

Advertisements
Track Severe Weather on mobile